createdAt,value
2023-05-24T00:02:08.560Z,3.50
2023-05-24T00:04:35.472Z,3.93
2023-05-24T00:07:03.478Z,3.50
2023-05-24T00:09:30.811Z,3.63
2023-05-24T00:11:57.602Z,3.30
2023-05-24T00:14:24.936Z,2.97
2023-05-24T00:16:51.791Z,3.17
2023-05-24T00:19:18.987Z,3.07
2023-05-24T00:21:46.686Z,3.20
2023-05-24T00:24:13.900Z,3.27
2023-05-24T00:26:41.208Z,2.90
2023-05-24T00:29:07.979Z,3.13
2023-05-24T00:31:34.863Z,3.33
2023-05-24T00:34:01.655Z,3.90
2023-05-24T00:36:28.452Z,2.80
2023-05-24T00:38:55.346Z,3.13
2023-05-24T00:41:22.037Z,3.10
2023-05-24T00:43:48.766Z,3.00
2023-05-24T00:46:28.077Z,3.10
2023-05-24T00:48:55.447Z,2.87
2023-05-24T00:51:22.618Z,2.90
2023-05-24T00:53:49.808Z,3.30
2023-05-24T00:56:17.491Z,3.37
2023-05-24T00:58:45.582Z,3.07
2023-05-24T01:01:13.007Z,3.20
2023-05-24T01:03:40.218Z,3.33
2023-05-24T01:06:08.310Z,3.00
2023-05-24T01:08:42.569Z,2.90
2023-05-24T01:11:24.658Z,2.70
2023-05-24T01:13:59.375Z,3.33
2023-05-24T01:16:38.129Z,2.77
2023-05-24T01:19:37.440Z,2.90
2023-05-24T01:22:09.174Z,3.27
2023-05-24T01:25:16.911Z,2.80
2023-05-24T01:27:44.380Z,3.50
2023-05-24T01:30:12.083Z,3.13
2023-05-24T01:32:38.989Z,3.17
2023-05-24T01:35:06.104Z,3.40
2023-05-24T01:37:32.811Z,2.83
2023-05-24T01:39:59.989Z,3.33
2023-05-24T01:42:43.960Z,3.80
2023-05-24T01:45:30.048Z,2.90
2023-05-24T01:48:28.992Z,3.10
2023-05-24T01:50:59.471Z,2.60
2023-05-24T01:53:33.646Z,2.93
2023-05-24T01:56:03.226Z,3.20
2023-05-24T01:58:31.169Z,2.87
2023-05-24T02:00:58.268Z,3.20
2023-05-24T02:03:25.180Z,3.67
2023-05-24T02:05:51.879Z,3.30
2023-05-24T02:08:18.661Z,2.97
2023-05-24T02:10:45.606Z,3.53
2023-05-24T02:13:12.343Z,3.03
2023-05-24T02:15:41.788Z,2.97
2023-05-24T02:18:08.672Z,3.30
2023-05-24T02:20:37.096Z,3.30
2023-05-24T02:23:04.606Z,3.70
2023-05-24T02:25:31.711Z,3.40
2023-05-24T02:28:01.315Z,3.03
2023-05-24T02:30:28.178Z,3.90
2023-05-24T02:32:54.998Z,3.80
2023-05-24T02:35:21.786Z,3.17
2023-05-24T02:37:48.539Z,3.53
2023-05-24T02:40:15.391Z,3.30
2023-05-24T02:42:42.141Z,3.57
2023-05-24T02:45:09.207Z,3.60
2023-05-24T02:47:35.979Z,3.67
2023-05-24T02:50:02.746Z,3.23
2023-05-24T02:52:29.569Z,3.60
2023-05-24T02:54:56.307Z,3.80
2023-05-24T02:57:23.084Z,3.53
2023-05-24T02:59:49.844Z,3.67
2023-05-24T03:02:18.045Z,3.50
2023-05-24T03:04:44.950Z,4.07
2023-05-24T03:07:11.700Z,3.73
2023-05-24T03:09:38.385Z,3.77
2023-05-24T03:12:05.833Z,4.50
2023-05-24T03:14:32.573Z,3.63
2023-05-24T03:16:59.274Z,3.70
2023-05-24T03:19:26.012Z,4.00
2023-05-24T03:21:52.734Z,3.27
2023-05-24T03:24:20.651Z,3.97
2023-05-24T03:26:47.481Z,3.80
2023-05-24T03:29:14.196Z,3.83
2023-05-24T03:31:40.911Z,3.73
2023-05-24T03:34:07.668Z,3.97
2023-05-24T03:36:34.393Z,4.20
2023-05-24T03:39:01.253Z,3.70
2023-05-24T03:41:28.250Z,3.83
2023-05-24T03:43:55.181Z,3.50
2023-05-24T03:46:22.051Z,3.67
2023-05-24T03:48:49.625Z,4.03
2023-05-24T03:51:16.450Z,4.10
2023-05-24T03:53:43.202Z,4.43
2023-05-24T03:56:09.901Z,3.73
2023-05-24T03:58:37.413Z,3.80
2023-05-24T04:01:04.273Z,3.50
2023-05-24T04:03:33.980Z,3.70
2023-05-24T04:06:00.959Z,4.03
2023-05-24T04:08:27.761Z,4.13
2023-05-24T04:10:54.463Z,3.27
2023-05-24T04:13:21.235Z,3.80
2023-05-24T04:15:48.140Z,3.67
2023-05-24T04:18:15.026Z,3.63
2023-05-24T04:20:42.220Z,3.80
2023-05-24T04:23:09.078Z,3.67
2023-05-24T04:25:35.850Z,4.27
2023-05-24T04:28:03.846Z,4.13
2023-05-24T04:30:30.947Z,4.30
2023-05-24T04:32:58.365Z,3.90
2023-05-24T04:35:25.904Z,3.80
2023-05-24T04:37:53.221Z,4.40
2023-05-24T04:40:23.172Z,4.13
2023-05-24T04:42:50.738Z,5.10
2023-05-24T04:45:17.571Z,4.77
2023-05-24T04:47:44.373Z,4.77
2023-05-24T04:50:11.221Z,4.50
2023-05-24T04:52:38.019Z,5.13
2023-05-24T04:55:05.057Z,4.50
2023-05-24T04:57:31.867Z,4.47
2023-05-24T04:59:58.872Z,4.30
2023-05-24T05:02:27.142Z,4.60
2023-05-24T05:04:54.066Z,4.37
2023-05-24T05:07:20.978Z,4.47
2023-05-24T05:09:47.888Z,3.90
2023-05-24T05:12:15.303Z,4.30
2023-05-24T05:14:42.444Z,3.63
2023-05-24T05:17:09.348Z,4.13
2023-05-24T05:19:36.315Z,3.93
2023-05-24T05:22:03.261Z,4.50
2023-05-24T05:24:30.111Z,4.37
2023-05-24T05:26:56.877Z,4.80
2023-05-24T05:29:24.518Z,5.63
2023-05-24T05:31:51.589Z,4.53
2023-05-24T05:34:19.505Z,4.67
2023-05-24T05:36:46.658Z,4.27
2023-05-24T05:39:14.021Z,4.67
2023-05-24T05:41:45.785Z,4.57
2023-05-24T05:44:13.536Z,4.50
2023-05-24T05:46:41.484Z,3.70
2023-05-24T05:49:08.376Z,4.37
2023-05-24T05:51:35.201Z,3.70
2023-05-24T05:54:01.974Z,3.60
2023-05-24T05:56:32.397Z,4.47
2023-05-24T05:58:59.144Z,4.45
2023-05-24T06:01:25.881Z,5.37
2023-05-24T06:03:52.781Z,4.80
2023-05-24T06:06:19.539Z,4.97
2023-05-24T06:08:46.300Z,4.53
2023-05-24T06:11:13.095Z,5.30
2023-05-24T06:13:39.805Z,4.50
2023-05-24T06:16:08.774Z,4.30
2023-05-24T06:18:36.555Z,4.68
2023-05-24T06:21:03.798Z,4.63
2023-05-24T06:23:30.787Z,5.35
2023-05-24T06:25:57.813Z,5.60
2023-05-24T06:28:24.547Z,4.77
2023-05-24T06:30:51.746Z,4.43
2023-05-24T06:33:19.183Z,4.50
2023-05-24T06:35:46.090Z,4.25
2023-05-24T06:38:12.885Z,4.95
2023-05-24T06:40:40.017Z,4.63
2023-05-24T06:43:06.931Z,4.32
2023-05-24T06:45:33.755Z,4.70
2023-05-24T06:48:00.608Z,4.43
2023-05-24T06:50:27.392Z,4.68
2023-05-24T06:52:54.176Z,4.72
2023-05-24T06:55:21.446Z,4.33
2023-05-24T06:57:48.268Z,4.27
2023-05-24T07:00:15.362Z,4.90
2023-05-24T07:02:42.419Z,4.20
2023-05-24T07:05:12.481Z,4.47
2023-05-24T07:07:40.705Z,4.77
2023-05-24T07:10:08.938Z,5.33
2023-05-24T07:12:35.757Z,4.40
2023-05-24T07:15:03.148Z,4.50
2023-05-24T07:17:30.015Z,4.87
2023-05-24T07:19:57.411Z,4.73
2023-05-24T07:22:25.428Z,4.63
2023-05-24T07:24:52.156Z,4.37
2023-05-24T07:27:18.855Z,4.13
2023-05-24T07:29:48.240Z,4.80
2023-05-24T07:32:15.263Z,5.00
2023-05-24T07:34:42.047Z,5.00
2023-05-24T07:37:08.794Z,5.30
2023-05-24T07:39:35.539Z,4.50
2023-05-24T07:42:02.272Z,4.53
2023-05-24T07:44:29.373Z,3.93
2023-05-24T07:46:56.985Z,4.30
2023-05-24T07:49:24.157Z,4.87
2023-05-24T07:51:50.965Z,4.27
2023-05-24T07:54:17.647Z,4.97
2023-05-24T07:56:44.642Z,4.00
2023-05-24T07:59:11.435Z,4.40
2023-05-24T08:01:38.870Z,4.07
2023-05-24T08:04:05.734Z,4.53
2023-05-24T08:06:35.498Z,4.47
2023-05-24T08:09:05.734Z,4.07
2023-05-24T08:11:32.440Z,4.17
2023-05-24T08:13:59.173Z,3.97
2023-05-24T08:16:26.103Z,3.93
2023-05-24T08:18:55.219Z,4.83
2023-05-24T08:21:22.554Z,4.67
2023-05-24T08:23:49.427Z,4.70
2023-05-24T08:26:19.109Z,5.20
2023-05-24T08:28:45.888Z,4.17
2023-05-24T08:31:12.625Z,4.17
2023-05-24T08:33:40.042Z,3.83
2023-05-24T08:36:07.186Z,4.10
2023-05-24T08:38:33.972Z,4.30
2023-05-24T08:41:02.137Z,4.27
2023-05-24T08:43:32.036Z,4.30
2023-05-24T08:46:01.713Z,3.90
2023-05-24T08:48:29.255Z,3.90
2023-05-24T08:50:58.076Z,3.43
2023-05-24T08:53:25.375Z,3.80
2023-05-24T08:55:53.373Z,3.90
2023-05-24T08:58:20.798Z,3.50
2023-05-24T09:00:47.524Z,3.43
2023-05-24T09:03:14.631Z,3.73
2023-05-24T09:05:41.929Z,3.93
2023-05-24T09:08:10.162Z,3.70
2023-05-24T09:10:49.270Z,3.53
2023-05-24T09:13:24.695Z,3.47
2023-05-24T09:15:51.668Z,4.43
2023-05-24T09:18:18.469Z,3.90
2023-05-24T09:20:45.458Z,4.00
2023-05-24T09:23:13.684Z,3.47
2023-05-24T09:25:44.992Z,3.60
2023-05-24T09:28:17.652Z,4.10
2023-05-24T09:30:45.820Z,3.73
2023-05-24T09:33:13.565Z,3.80
2023-05-24T09:35:44.241Z,4.77
2023-05-24T09:38:18.800Z,6.20
2023-05-24T09:40:45.727Z,5.43
2023-05-24T09:43:12.547Z,5.67
2023-05-24T09:45:46.498Z,6.47
2023-05-24T09:48:15.386Z,5.80
2023-05-24T09:50:42.583Z,5.90
2023-05-24T09:53:09.612Z,6.07
2023-05-24T09:55:37.592Z,5.17
2023-05-24T09:58:05.776Z,5.63
2023-05-24T10:00:39.818Z,5.70
2023-05-24T10:03:08.983Z,5.13
2023-05-24T10:05:36.387Z,5.67
2023-05-24T10:08:06.656Z,4.53
2023-05-24T10:10:34.172Z,5.43
2023-05-24T10:13:02.119Z,5.43
2023-05-24T10:15:30.155Z,5.53
2023-05-24T10:17:57.893Z,5.37
2023-05-24T10:20:25.189Z,4.40
2023-05-24T10:22:55.607Z,5.53
2023-05-24T10:25:27.300Z,5.10
2023-05-24T10:28:07.393Z,5.33
2023-05-24T10:30:54.479Z,4.87
2023-05-24T10:33:23.917Z,4.63
2023-05-24T10:35:51.691Z,4.30
2023-05-24T10:38:22.484Z,4.07
2023-05-24T10:40:49.500Z,4.50
2023-05-24T10:43:18.136Z,4.27
2023-05-24T10:45:49.699Z,3.83
2023-05-24T10:48:17.035Z,4.23
2023-05-24T10:50:44.648Z,4.30
2023-05-24T10:53:19.489Z,4.33
2023-05-24T10:55:53.556Z,4.40
2023-05-24T10:58:20.854Z,4.33
2023-05-24T11:00:51.421Z,4.70
2023-05-24T11:03:23.754Z,4.90
2023-05-24T11:05:54.692Z,4.70
2023-05-24T11:08:31.671Z,4.40
2023-05-24T11:11:24.429Z,4.80
2023-05-24T11:13:57.830Z,5.07
2023-05-24T11:16:37.557Z,5.33
2023-05-24T11:19:30.668Z,5.63
2023-05-24T11:22:00.602Z,5.13
2023-05-24T11:24:29.021Z,5.60
2023-05-24T11:26:57.133Z,4.70
2023-05-24T11:29:24.329Z,4.67
2023-05-24T11:31:55.338Z,4.70
2023-05-24T11:34:22.277Z,5.63
2023-05-24T11:36:49.311Z,4.83
2023-05-24T11:39:16.861Z,5.17
2023-05-24T11:41:44.202Z,4.80
2023-05-24T11:44:12.309Z,4.90
2023-05-24T11:46:40.415Z,5.97
2023-05-24T11:49:12.137Z,5.90
2023-05-24T11:51:38.824Z,5.83
2023-05-24T11:54:05.652Z,5.40
2023-05-24T11:56:33.783Z,5.13
2023-05-24T11:59:09.949Z,5.30
2023-05-24T12:01:38.356Z,5.63
2023-05-24T12:04:11.963Z,5.93
2023-05-24T12:06:41.159Z,6.07
2023-05-24T12:09:11.010Z,5.33
2023-05-24T12:11:42.078Z,5.13
2023-05-24T12:14:19.762Z,4.50
2023-05-24T12:16:47.610Z,5.07
2023-05-24T12:21:55.605Z,4.97
2023-05-24T12:24:23.703Z,4.30
2023-05-24T12:26:50.855Z,4.50
2023-05-24T12:29:18.141Z,4.40
2023-05-24T12:31:48.979Z,3.97
2023-05-24T12:34:17.850Z,3.70
2023-05-24T12:36:45.259Z,3.57
2023-05-24T12:39:22.256Z,3.33
2023-05-24T12:41:53.986Z,3.60
2023-05-24T12:44:31.977Z,3.97
2023-05-24T12:46:59.481Z,3.43
2023-05-24T12:49:26.998Z,3.83
2023-05-24T12:51:55.253Z,3.97
2023-05-24T12:54:28.909Z,3.87
2023-05-24T12:56:57.563Z,4.23
2023-05-24T12:59:25.581Z,3.90
2023-05-24T13:01:52.641Z,3.87
2023-05-24T13:04:21.912Z,3.43
2023-05-24T13:06:49.009Z,4.17
2023-05-24T13:09:19.350Z,4.33
2023-05-24T13:11:46.712Z,4.13
2023-05-24T13:14:15.419Z,4.60
2023-05-24T13:16:42.522Z,3.67
2023-05-24T13:19:10.225Z,4.17
2023-05-24T13:21:37.141Z,3.83
2023-05-24T13:24:05.527Z,3.97
2023-05-24T13:26:37.167Z,4.30
2023-05-24T13:31:37.253Z,4.10
2023-05-24T13:34:04.516Z,4.53
2023-05-24T13:36:31.231Z,4.57
2023-05-24T13:39:13.434Z,4.20
2023-05-24T13:41:42.292Z,3.90
2023-05-24T13:44:10.188Z,3.60
2023-05-24T13:46:37.507Z,3.20
2023-05-24T13:49:05.395Z,3.80
2023-05-24T13:51:32.887Z,4.13
2023-05-24T13:54:00.177Z,3.87
2023-05-24T13:56:32.603Z,3.97
2023-05-24T13:59:03.653Z,4.27
2023-05-24T14:01:31.294Z,4.43
2023-05-24T14:03:58.581Z,4.30
2023-05-24T14:06:25.401Z,4.33
2023-05-24T14:08:52.356Z,4.20
2023-05-24T14:11:19.759Z,4.50
2023-05-24T14:16:16.724Z,4.03
2023-05-24T14:18:43.720Z,4.47
2023-05-24T14:21:10.457Z,4.10
2023-05-24T14:23:38.835Z,4.00
2023-05-24T14:26:05.816Z,4.67
2023-05-24T14:28:32.590Z,4.60
2023-05-24T14:30:59.283Z,4.03
2023-05-24T14:33:25.988Z,4.20
2023-05-24T14:35:53.245Z,4.33
2023-05-24T14:38:20.081Z,4.17
2023-05-24T14:40:49.538Z,4.27
2023-05-24T14:43:16.648Z,4.40
2023-05-24T14:45:43.831Z,4.20
2023-05-24T14:48:11.679Z,4.23
2023-05-24T14:50:40.326Z,4.73
2023-05-24T14:53:09.762Z,4.27
2023-05-24T14:55:37.397Z,4.67
2023-05-24T14:58:13.639Z,4.80
2023-05-24T15:00:42.049Z,4.63
2023-05-24T15:03:09.294Z,6.73
2023-05-24T15:05:36.889Z,5.27
2023-05-24T15:08:05.406Z,5.93
2023-05-24T15:10:32.141Z,5.90
2023-05-24T15:12:59.008Z,4.90
2023-05-24T15:15:25.727Z,4.72
2023-05-24T15:17:52.532Z,4.47
2023-05-24T15:20:19.734Z,3.97
2023-05-24T15:22:46.688Z,4.53
2023-05-24T15:25:13.570Z,4.50
2023-05-24T15:27:40.405Z,4.20
2023-05-24T15:30:07.724Z,4.03
2023-05-24T15:32:34.596Z,4.50
2023-05-24T15:35:01.609Z,4.03
2023-05-24T15:37:28.885Z,4.13
2023-05-24T15:39:55.920Z,4.60
2023-05-24T15:42:24.635Z,5.47
2023-05-24T15:44:51.748Z,5.30
2023-05-24T15:47:21.259Z,4.73
2023-05-24T15:49:49.897Z,4.97
2023-05-24T15:52:17.103Z,4.80
2023-05-24T15:54:44.104Z,8.10
2023-05-24T15:57:11.040Z,4.77
2023-05-24T15:59:38.783Z,3.83
2023-05-24T16:02:09.139Z,4.33
2023-05-24T16:04:36.301Z,4.60
2023-05-24T16:07:03.195Z,4.40
2023-05-24T16:09:30.190Z,4.00
2023-05-24T16:11:57.101Z,4.23
2023-05-24T16:14:24.067Z,4.57
2023-05-24T16:16:51.084Z,4.90
2023-05-24T16:19:18.140Z,4.37
2023-05-24T16:21:45.086Z,5.10
2023-05-24T16:24:11.846Z,4.50
2023-05-24T16:26:38.619Z,3.93
2023-05-24T16:29:06.971Z,3.80
2023-05-24T16:31:33.844Z,4.07
2023-05-24T16:34:00.921Z,4.00
2023-05-24T16:36:27.748Z,4.17
2023-05-24T16:38:54.662Z,3.63
2023-05-24T16:41:21.435Z,4.10
2023-05-24T16:43:48.224Z,3.40
2023-05-24T16:46:15.101Z,4.73
2023-05-24T16:48:41.919Z,4.33
2023-05-24T16:51:08.805Z,4.23
2023-05-24T16:53:36.159Z,4.07
2023-05-24T16:56:02.943Z,3.80
2023-05-24T16:58:30.856Z,4.03
2023-05-24T17:00:58.448Z,3.80
2023-05-24T17:03:28.735Z,4.00
2023-05-24T17:05:58.424Z,4.20
2023-05-24T17:08:27.740Z,3.90
2023-05-24T17:10:58.617Z,4.30
2023-05-24T17:13:29.026Z,4.20
2023-05-24T17:15:57.075Z,3.93
2023-05-24T17:18:28.606Z,3.60
2023-05-24T17:21:01.335Z,4.13
2023-05-24T17:23:31.013Z,3.87
2023-05-24T17:25:58.573Z,4.03
2023-05-24T17:28:29.603Z,3.80
2023-05-24T17:30:57.763Z,4.20
2023-05-24T17:33:26.186Z,3.73
2023-05-24T17:35:56.242Z,3.87
2023-05-24T17:38:24.899Z,3.90
2023-05-24T17:41:01.830Z,3.30
2023-05-24T17:43:29.209Z,3.60
2023-05-24T17:46:03.525Z,3.83
2023-05-24T17:48:31.917Z,3.90
2023-05-24T17:51:04.911Z,3.70
2023-05-24T17:53:33.621Z,3.67
2023-05-24T17:56:04.667Z,3.80
2023-05-24T17:58:32.951Z,3.90
2023-05-24T18:00:59.747Z,4.20
2023-05-24T18:03:26.519Z,4.10
2023-05-24T18:05:53.305Z,3.87
2023-05-24T18:08:20.267Z,3.97
2023-05-24T18:10:46.994Z,4.27
2023-05-24T18:13:13.792Z,3.87
2023-05-24T18:15:40.566Z,4.10
2023-05-24T18:18:07.430Z,3.70
2023-05-24T18:20:34.391Z,3.90
2023-05-24T18:23:01.195Z,4.10
2023-05-24T18:25:28.047Z,4.07
2023-05-24T18:27:54.770Z,4.13
2023-05-24T18:30:21.586Z,4.20
2023-05-24T18:33:03.136Z,4.23
2023-05-24T18:35:32.012Z,3.60
2023-05-24T18:37:59.125Z,4.30
2023-05-24T18:40:26.044Z,4.00
2023-05-24T18:42:52.850Z,4.40
2023-05-24T18:45:19.715Z,3.83
2023-05-24T18:47:46.711Z,4.20
2023-05-24T18:50:13.571Z,3.80
2023-05-24T18:52:40.368Z,3.80
2023-05-24T18:55:10.705Z,4.00
2023-05-24T18:57:37.812Z,4.27
2023-05-24T19:00:05.922Z,4.73
2023-05-24T19:02:38.365Z,4.83
2023-05-24T19:05:06.780Z,3.87
2023-05-24T19:07:34.653Z,4.67
2023-05-24T19:10:01.766Z,4.93
2023-05-24T19:12:30.172Z,4.50
2023-05-24T19:14:57.140Z,4.33
2023-05-24T19:17:24.968Z,5.40
2023-05-24T19:19:52.172Z,4.70
2023-05-24T19:22:19.121Z,4.53
2023-05-24T19:24:45.943Z,4.73
2023-05-24T19:27:13.074Z,5.07
2023-05-24T19:29:40.014Z,5.17
2023-05-24T19:32:11.474Z,4.67
2023-05-24T19:34:42.072Z,5.27
2023-05-24T19:37:09.639Z,5.30
2023-05-24T19:39:37.048Z,5.17
2023-05-24T19:42:04.393Z,5.37
2023-05-24T19:44:31.228Z,5.27
2023-05-24T19:46:57.977Z,5.30
2023-05-24T19:49:24.664Z,5.43
2023-05-24T19:51:52.617Z,5.67
2023-05-24T19:54:19.439Z,5.67
2023-05-24T19:56:50.069Z,6.33
2023-05-24T19:59:17.735Z,7.70
2023-05-24T20:01:44.897Z,5.17
2023-05-24T20:04:12.907Z,5.53
2023-05-24T20:06:40.351Z,5.20
2023-05-24T20:09:07.224Z,5.40
2023-05-24T20:11:34.711Z,5.93
2023-05-24T20:14:01.884Z,5.30
2023-05-24T20:16:29.595Z,5.10
2023-05-24T20:18:56.463Z,5.63
2023-05-24T20:21:23.166Z,5.13
2023-05-24T20:23:55.205Z,5.27
2023-05-24T20:26:23.358Z,5.37
2023-05-24T20:28:51.885Z,5.50
2023-05-24T20:31:18.748Z,5.40
2023-05-24T20:33:45.506Z,5.50
2023-05-24T20:36:13.328Z,5.17
2023-05-24T20:38:40.102Z,5.40
2023-05-24T20:41:06.833Z,5.20
2023-05-24T20:43:33.559Z,5.73
2023-05-24T20:46:00.382Z,5.53
2023-05-24T20:48:28.015Z,5.43
2023-05-24T20:50:54.826Z,6.13
2023-05-24T20:53:21.603Z,5.67
2023-05-24T20:55:48.333Z,5.73
2023-05-24T20:58:17.041Z,6.27
2023-05-24T21:00:43.825Z,5.80
2023-05-24T21:03:10.889Z,5.70
2023-05-24T21:05:39.986Z,6.17
2023-05-24T21:08:06.948Z,6.10
2023-05-24T21:10:33.907Z,6.20
2023-05-24T21:13:00.703Z,6.60
2023-05-24T21:15:27.458Z,7.13
2023-05-24T21:17:54.236Z,6.10
2023-05-24T21:20:21.153Z,6.30
2023-05-24T21:22:48.082Z,7.23
2023-05-24T21:25:15.172Z,6.57
2023-05-24T21:27:41.888Z,6.07
2023-05-24T21:30:09.264Z,6.87
2023-05-24T21:32:36.078Z,6.70
2023-05-24T21:35:02.839Z,6.70
2023-05-24T21:37:29.704Z,6.60
2023-05-24T21:39:56.443Z,6.57
2023-05-24T21:42:23.177Z,6.70
2023-05-24T21:44:49.955Z,6.13
2023-05-24T21:47:17.094Z,6.30
2023-05-24T21:49:43.885Z,7.10
2023-05-24T21:52:10.655Z,7.47
2023-05-24T21:54:37.409Z,6.67
2023-05-24T21:57:04.471Z,6.60
2023-05-24T21:59:31.203Z,6.37
2023-05-24T22:01:58.198Z,7.13
2023-05-24T22:04:24.957Z,6.97
2023-05-24T22:06:51.672Z,6.70
2023-05-24T22:09:18.386Z,6.40
2023-05-24T22:11:45.111Z,6.60
2023-05-24T22:14:12.044Z,6.53
2023-05-24T22:16:38.961Z,6.47
2023-05-24T22:19:14.612Z,6.40
2023-05-24T22:21:42.887Z,6.30
2023-05-24T22:24:10.246Z,6.87
2023-05-24T22:26:37.040Z,6.20
2023-05-24T22:29:04.264Z,6.87
2023-05-24T22:31:33.479Z,6.83
2023-05-24T22:34:03.828Z,6.50
2023-05-24T22:36:35.269Z,6.30
2023-05-24T22:39:02.442Z,6.47
2023-05-24T22:41:29.170Z,7.00
2023-05-24T22:43:56.871Z,6.63
2023-05-24T22:46:23.952Z,7.73
2023-05-24T22:48:56.448Z,6.70
2023-05-24T22:51:23.506Z,7.43
2023-05-24T22:53:52.660Z,8.17
2023-05-24T22:56:19.572Z,8.50
2023-05-24T22:58:46.371Z,8.87
2023-05-24T23:01:13.237Z,7.80
2023-05-24T23:03:40.031Z,7.20
2023-05-24T23:06:07.646Z,7.07
2023-05-24T23:08:34.479Z,6.90
2023-05-24T23:11:01.527Z,7.37
2023-05-24T23:13:33.661Z,7.57
2023-05-24T23:16:00.727Z,8.03
2023-05-24T23:18:27.813Z,6.87
2023-05-24T23:20:54.829Z,7.67
2023-05-24T23:23:24.785Z,8.17
2023-05-24T23:25:51.775Z,8.10
2023-05-24T23:28:18.737Z,7.77
2023-05-24T23:30:45.932Z,8.03
2023-05-24T23:33:12.658Z,7.17
2023-05-24T23:35:39.822Z,7.20
2023-05-24T23:38:06.678Z,8.07
2023-05-24T23:40:34.211Z,8.30
2023-05-24T23:43:01.180Z,8.63
2023-05-24T23:45:27.923Z,6.53
2023-05-24T23:47:54.720Z,6.80
2023-05-24T23:50:22.553Z,8.00
2023-05-24T23:52:50.025Z,7.17
2023-05-24T23:55:17.399Z,7.93
2023-05-24T23:57:44.138Z,7.27
